createdAt,value
2023-02-03T00:00:32.061Z,102160.25
2023-02-03T00:03:02.008Z,102162.66
2023-02-03T00:05:32.891Z,102156.16
2023-02-03T00:08:02.634Z,102147.22
2023-02-03T00:10:32.491Z,102151.31
2023-02-03T00:13:05.028Z,102152.63
2023-02-03T00:15:34.844Z,102152.13
2023-02-03T00:18:04.632Z,102142.91
2023-02-03T00:20:34.525Z,102146.69
2023-02-03T00:23:08.284Z,102137.75
2023-02-03T00:25:38.443Z,102130.69
2023-02-03T00:28:10.881Z,102137.19
2023-02-03T00:30:41.092Z,102140.19
2023-02-03T00:33:10.812Z,102137.47
2023-02-03T00:35:41.912Z,102130.69
2023-02-03T00:38:11.689Z,102132.06
2023-02-03T00:40:41.479Z,102144.50
2023-02-03T00:43:14.094Z,102149.94
2023-02-03T00:45:43.921Z,102148.56
2023-02-03T00:48:14.220Z,102141.53
2023-02-03T00:50:44.005Z,102138.00
2023-02-03T00:53:14.213Z,102142.34
2023-02-03T00:55:46.000Z,102145.03
2023-02-03T00:58:18.528Z,102157.25
2023-02-03T01:00:48.366Z,102172.97
2023-02-03T01:03:19.195Z,102172.69
2023-02-03T01:05:49.181Z,102177.56
2023-02-03T01:08:18.998Z,102184.91
2023-02-03T01:10:48.950Z,102188.41
2023-02-03T01:13:21.389Z,102191.66
2023-02-03T01:15:51.435Z,102194.38
2023-02-03T01:18:21.375Z,102204.69
2023-02-03T01:20:51.471Z,102201.16
2023-02-03T01:23:21.411Z,102196.00
2023-02-03T01:25:51.558Z,102189.78
2023-02-03T01:28:23.988Z,102200.63
2023-02-03T01:30:53.794Z,102198.72
2023-02-03T01:33:23.855Z,102197.63
2023-02-03T01:35:53.664Z,102192.22
2023-02-03T01:38:23.511Z,102196.53
2023-02-03T01:40:53.379Z,102207.38
2023-02-03T01:43:37.217Z,102201.44
2023-02-03T01:46:11.100Z,102196.25
2023-02-03T01:48:40.953Z,102183.00
2023-02-03T01:51:10.897Z,102178.63
2023-02-03T01:53:40.888Z,102181.34
2023-02-03T01:56:11.852Z,102188.94
2023-02-03T01:58:45.559Z,102190.84
2023-02-03T02:01:17.503Z,102199.50
2023-02-03T02:03:52.884Z,102180.81
2023-02-03T02:06:22.780Z,102175.13
2023-02-03T02:08:55.855Z,102172.72
2023-02-03T02:11:25.673Z,102168.34
2023-02-03T02:14:02.048Z,102165.09
2023-02-03T02:16:44.143Z,102168.91
2023-02-03T02:19:43.689Z,102170.25
2023-02-03T02:22:22.463Z,102148.28
2023-02-03T02:25:21.386Z,102149.66
2023-02-03T02:28:14.810Z,102138.53
2023-02-03T02:31:13.385Z,102141.53
2023-02-03T02:33:55.350Z,102152.63
2023-02-03T02:36:33.553Z,102129.31
2023-02-03T02:39:13.269Z,102119.56
2023-02-03T02:41:47.717Z,102116.31
2023-02-03T02:44:22.467Z,102131.50
2023-02-03T02:46:56.570Z,102139.63
2023-02-03T02:49:34.673Z,102122.84
2023-02-03T02:52:09.344Z,102122.84
2023-02-03T02:54:44.473Z,102112.00
2023-02-03T02:57:16.885Z,102100.59
2023-02-03T02:59:48.264Z,102107.38
2023-02-03T03:02:18.389Z,102119.56
2023-02-03T03:04:54.149Z,102118.50
2023-02-03T03:07:29.206Z,102121.75
2023-02-03T03:10:03.991Z,102134.19
2023-02-03T03:12:37.755Z,102151.00
2023-02-03T03:15:11.447Z,102149.38
2023-02-03T03:17:45.178Z,102141.53
2023-02-03T03:20:24.148Z,102141.78
2023-02-03T03:23:00.729Z,102130.13
2023-02-03T03:25:38.123Z,102125.78
2023-02-03T03:28:13.065Z,102133.13
2023-02-03T03:30:45.186Z,102132.03
2023-02-03T03:33:15.286Z,102132.03
2023-02-03T03:35:52.725Z,102135.81
2023-02-03T03:38:32.050Z,102133.16
2023-02-03T03:41:08.854Z,102142.63
2023-02-03T03:43:44.101Z,102136.09
2023-02-03T03:46:17.897Z,102129.06
2023-02-03T03:48:54.587Z,102123.38
2023-02-03T03:51:32.006Z,102129.34
2023-02-03T03:54:05.385Z,102134.75
2023-02-03T03:56:39.659Z,102119.03
2023-02-03T03:59:12.075Z,102130.13
2023-02-03T04:01:42.871Z,102136.06
2023-02-03T04:04:14.455Z,102136.34
2023-02-03T04:06:46.980Z,102127.69
2023-02-03T04:09:17.710Z,102146.38
2023-02-03T04:12:00.143Z,102149.09
2023-02-03T04:14:30.194Z,102143.16
2023-02-03T04:17:00.382Z,102135.81
2023-02-03T04:19:30.446Z,102114.16
2023-02-03T04:22:03.053Z,102110.34
2023-02-03T04:24:32.922Z,102128.50
2023-02-03T04:27:05.170Z,102132.03
2023-02-03T04:29:35.227Z,102127.16
2023-02-03T04:32:05.170Z,102119.31
2023-02-03T04:34:35.055Z,102135.53
2023-02-03T04:37:07.734Z,102132.59
2023-02-03T04:39:37.672Z,102124.97
2023-02-03T04:42:07.537Z,102126.88
2023-02-03T04:44:37.249Z,102119.81
2023-02-03T04:47:08.655Z,102128.22
2023-02-03T04:49:38.444Z,102122.81
2023-02-03T04:52:11.429Z,102101.13
2023-02-03T04:54:41.148Z,102098.13
2023-02-03T04:57:11.046Z,102102.72
2023-02-03T04:59:40.861Z,102098.69
2023-02-03T05:02:10.865Z,102097.06
2023-02-03T05:04:40.662Z,102089.19
2023-02-03T05:07:13.258Z,102082.94
2023-02-03T05:09:42.990Z,102094.59
2023-02-03T05:12:12.739Z,102097.06
2023-02-03T05:14:42.650Z,102085.94
2023-02-03T05:17:12.391Z,102091.09
2023-02-03T05:19:42.158Z,102078.34
2023-02-03T05:22:14.592Z,102083.22
2023-02-03T05:24:44.476Z,102095.41
2023-02-03T05:27:14.221Z,102092.97
2023-02-03T05:29:43.911Z,102098.94
2023-02-03T05:32:13.612Z,102113.03
2023-02-03T05:34:44.510Z,102099.50
2023-02-03T05:37:17.033Z,102091.09
2023-02-03T05:39:47.032Z,102102.72
2023-02-03T05:42:14.165Z,102103.53
2023-02-03T05:44:44.401Z,102091.09
2023-02-03T05:47:14.131Z,102100.03
2023-02-03T05:49:43.939Z,102100.31
2023-02-03T05:52:16.935Z,102092.44
2023-02-03T05:54:46.717Z,102082.41
2023-02-03T05:57:18.312Z,102101.63
2023-02-03T05:59:48.138Z,102105.72
2023-02-03T06:02:18.059Z,102095.16
2023-02-03T06:04:47.880Z,102086.50
2023-02-03T06:07:20.292Z,102101.13
2023-02-03T06:09:50.430Z,102095.41
2023-02-03T06:12:20.216Z,102106.53
2023-02-03T06:14:50.094Z,102095.69
2023-02-03T06:17:19.913Z,102098.13
2023-02-03T06:19:49.720Z,102098.41
2023-02-03T06:22:22.164Z,102098.94
2023-02-03T06:24:52.137Z,102095.69
2023-02-03T06:27:22.010Z,102093.50
2023-02-03T06:29:51.967Z,102094.06
2023-02-03T06:32:21.757Z,102121.19
2023-02-03T06:34:51.475Z,102113.84
2023-02-03T06:37:24.861Z,102113.56
2023-02-03T06:39:54.642Z,102113.03
2023-02-03T06:42:24.459Z,102113.56
2023-02-03T06:44:55.262Z,102115.19
2023-02-03T06:47:24.965Z,102109.78
2023-02-03T06:49:54.968Z,102105.44
2023-02-03T06:52:27.421Z,102107.63
2023-02-03T06:54:57.176Z,102093.00
2023-02-03T06:57:27.046Z,102112.47
2023-02-03T06:59:56.884Z,102111.13
2023-02-03T07:02:26.775Z,102096.50
2023-02-03T07:04:56.524Z,102103.25
2023-02-03T07:07:28.929Z,102105.44
2023-02-03T07:09:58.772Z,102117.91
2023-02-03T07:12:28.793Z,102110.28
2023-02-03T07:14:58.536Z,102101.63
2023-02-03T07:17:28.394Z,102109.19
2023-02-03T07:19:58.194Z,102103.53
2023-02-03T07:22:30.674Z,102105.44
2023-02-03T07:25:00.553Z,102106.50
2023-02-03T07:27:30.604Z,102112.47
2023-02-03T07:30:00.543Z,102110.59
2023-02-03T07:32:32.297Z,102103.53
2023-02-03T07:35:03.051Z,102097.81
2023-02-03T07:37:35.522Z,102104.88
2023-02-03T07:40:07.708Z,102099.44
2023-02-03T07:42:37.695Z,102113.28
2023-02-03T07:45:08.376Z,102120.03
2023-02-03T07:47:38.368Z,102130.34
2023-02-03T07:50:08.626Z,102131.97
2023-02-03T07:52:41.299Z,102123.03
2023-02-03T07:55:12.347Z,102124.94
2023-02-03T07:57:43.817Z,102124.41
2023-02-03T08:00:16.265Z,102123.88
2023-02-03T08:02:46.958Z,102139.59
2023-02-03T08:05:17.681Z,102139.84
2023-02-03T08:07:50.319Z,102145.53
2023-02-03T08:10:20.453Z,102138.75
2023-02-03T08:12:50.313Z,102138.50
2023-02-03T08:15:20.281Z,102133.59
2023-02-03T08:17:51.647Z,102129.50
2023-02-03T08:20:21.575Z,102139.03
2023-02-03T08:22:53.959Z,102143.34
2023-02-03T08:25:23.796Z,102146.63
2023-02-03T08:27:53.923Z,102151.47
2023-02-03T08:30:24.014Z,102151.47
2023-02-03T08:32:53.934Z,102155.25
2023-02-03T08:35:23.764Z,102143.84
2023-02-03T08:37:56.471Z,102138.44
2023-02-03T08:40:26.853Z,102150.38
2023-02-03T08:42:57.566Z,102137.09
2023-02-03T08:45:27.451Z,102139.81
2023-02-03T08:47:57.575Z,102148.19
2023-02-03T08:50:27.800Z,102160.19
2023-02-03T08:53:00.970Z,102136.84
2023-02-03T08:55:30.831Z,102166.13
2023-02-03T08:58:00.661Z,102159.06
2023-02-03T09:00:30.831Z,102164.22
2023-02-03T09:03:01.178Z,102165.56
2023-02-03T09:05:33.151Z,102148.75
2023-02-03T09:08:06.264Z,102156.34
2023-02-03T09:10:36.230Z,102164.75
2023-02-03T09:13:06.285Z,102162.28
2023-02-03T09:15:36.477Z,102165.00
2023-02-03T09:18:06.534Z,102156.56
2023-02-03T09:20:36.411Z,102167.72
2023-02-03T09:23:09.099Z,102178.56
2023-02-03T09:25:39.090Z,102169.88
2023-02-03T09:28:09.544Z,102170.97
2023-02-03T09:30:39.589Z,102164.72
2023-02-03T09:33:09.473Z,102167.72
2023-02-03T09:35:39.278Z,102176.38
2023-02-03T09:38:11.610Z,102179.38
2023-02-03T09:40:42.503Z,102178.56
2023-02-03T09:43:33.546Z,102182.38
2023-02-03T09:46:06.577Z,102180.44
2023-02-03T09:48:41.550Z,102167.97
2023-02-03T09:51:21.812Z,102171.53
2023-02-03T09:53:59.221Z,102178.03
2023-02-03T09:56:34.671Z,102180.19
2023-02-03T09:59:05.479Z,102162.81
2023-02-03T10:01:43.609Z,102146.53
2023-02-03T10:04:28.539Z,102162.25
2023-02-03T10:07:05.730Z,102162.81
2023-02-03T10:09:51.683Z,102169.28
2023-02-03T10:13:03.277Z,102171.19
2023-02-03T10:16:03.250Z,102167.94
2023-02-03T10:18:39.472Z,102165.47
2023-02-03T10:21:19.951Z,102164.38
2023-02-03T10:23:55.089Z,102169.78
2023-02-03T10:26:30.672Z,102172.50
2023-02-03T10:29:05.500Z,102174.19
2023-02-03T10:31:39.118Z,102184.22
2023-02-03T10:34:13.729Z,102180.97
2023-02-03T10:36:55.130Z,102179.03
2023-02-03T10:39:33.931Z,102185.28
2023-02-03T10:42:08.487Z,102188.22
2023-02-03T10:44:41.950Z,102187.16
2023-02-03T10:47:25.004Z,102171.09
2023-02-03T10:49:57.243Z,102179.47
2023-02-03T10:52:32.405Z,102171.63
2023-02-03T10:55:07.572Z,102162.94
2023-02-03T10:57:42.237Z,102165.38
2023-02-03T11:00:26.438Z,102161.59
2023-02-03T11:03:02.477Z,102174.34
2023-02-03T11:05:32.286Z,102170.03
2023-02-03T11:08:02.056Z,102171.09
2023-02-03T11:10:37.915Z,102181.09
2023-02-03T11:13:24.633Z,102186.56
2023-02-03T11:16:00.608Z,102199.28
2023-02-03T11:18:48.640Z,102190.63
2023-02-03T11:21:21.685Z,102188.72
2023-02-03T11:23:56.781Z,102187.63
2023-02-03T11:26:30.400Z,102194.13
2023-02-03T11:29:05.274Z,102184.38
2023-02-03T11:31:38.121Z,102202.53
2023-02-03T11:34:10.595Z,102204.16
2023-02-03T11:36:40.463Z,102200.06
2023-02-03T11:39:28.661Z,102198.44
2023-02-03T11:41:59.018Z,102205.47
2023-02-03T11:44:33.996Z,102211.47
2023-02-03T11:47:06.550Z,102192.47
2023-02-03T11:49:58.058Z,102206.56
2023-02-03T11:52:53.663Z,102202.19
2023-02-03T11:55:48.965Z,102198.38
2023-02-03T11:59:01.504Z,102198.16
2023-02-03T12:01:55.370Z,102206.00
2023-02-03T12:04:44.544Z,102198.97
2023-02-03T12:07:41.475Z,102202.78
2023-02-03T12:10:26.525Z,102199.50
2023-02-03T12:13:08.479Z,102194.34
2023-02-03T12:15:57.973Z,102205.44
2023-02-03T12:18:48.256Z,102201.63
2023-02-03T12:21:44.439Z,102217.38
2023-02-03T12:24:27.650Z,102220.88
2023-02-03T12:27:06.544Z,102221.94
2023-02-03T12:29:43.436Z,102217.88
2023-02-03T12:32:22.904Z,102214.06
2023-02-03T12:34:59.911Z,102215.69
2023-02-03T12:37:32.258Z,102211.34
2023-02-03T12:40:05.084Z,102207.00
2023-02-03T12:42:40.198Z,102208.56
2023-02-03T12:45:15.834Z,102203.69
2023-02-03T12:47:50.928Z,102212.69
2023-02-03T12:50:31.010Z,102209.44
2023-02-03T12:53:06.546Z,102218.38
2023-02-03T12:55:40.464Z,102216.47
2023-02-03T12:58:16.628Z,102219.41
2023-02-03T13:00:51.450Z,102209.94
2023-02-03T13:03:29.980Z,102212.31
2023-02-03T13:06:13.921Z,102207.50
2023-02-03T13:08:50.520Z,102210.13
2023-02-03T13:11:26.198Z,102213.38
2023-02-03T13:13:59.933Z,102208.50
2023-02-03T13:16:35.781Z,102221.22
2023-02-03T13:19:09.942Z,102204.66
2023-02-03T13:21:42.361Z,102197.31
2023-02-03T13:24:14.626Z,102203.00
2023-02-03T13:27:12.039Z,102197.66
2023-02-03T13:30:00.849Z,102201.50
2023-02-03T13:32:48.870Z,102206.34
2023-02-03T13:35:34.555Z,102200.06
2023-02-03T13:38:31.229Z,102193.31
2023-02-03T13:41:08.833Z,102184.59
2023-02-03T13:43:44.270Z,102183.47
2023-02-03T13:46:26.266Z,102186.94
2023-02-03T13:48:57.539Z,102202.94
2023-02-03T13:51:35.099Z,102216.47
2023-02-03T13:54:11.368Z,102205.94
2023-02-03T13:56:42.451Z,102197.53
2023-02-03T13:59:33.189Z,102202.19
2023-02-03T14:02:35.143Z,102206.91
2023-02-03T14:05:05.504Z,102190.31
2023-02-03T14:07:38.345Z,102197.63
2023-02-03T14:10:31.407Z,102200.66
2023-02-03T14:13:03.870Z,102257.91
2023-02-03T14:15:39.831Z,102240.03
2023-02-03T14:18:34.279Z,102260.53
2023-02-03T14:21:23.488Z,102250.50
2023-02-03T14:24:00.284Z,102240.22
2023-02-03T14:26:47.772Z,102268.53
2023-02-03T14:29:29.867Z,102269.34
2023-02-03T14:32:02.618Z,102270.69
2023-02-03T14:34:41.510Z,102281.03
2023-02-03T14:37:27.134Z,102284.81
2023-02-03T14:40:29.113Z,102281.00
2023-02-03T14:43:28.215Z,102292.97
2023-02-03T14:46:29.836Z,102297.59
2023-02-03T14:49:19.591Z,102308.72
2023-02-03T14:52:00.286Z,102298.66
2023-02-03T14:54:57.843Z,102305.16
2023-02-03T14:57:39.378Z,102309.78
2023-02-03T15:00:31.590Z,102310.06
2023-02-03T15:03:25.699Z,102310.88
2023-02-03T15:05:58.351Z,102323.34
2023-02-03T15:08:37.532Z,102326.63
2023-02-03T15:11:27.816Z,102330.69
2023-02-03T15:13:58.549Z,102329.31
2023-02-03T15:16:30.975Z,102334.19
2023-02-03T15:19:07.745Z,102336.63
2023-02-03T15:21:44.864Z,102344.78
2023-02-03T15:24:19.045Z,102332.56
2023-02-03T15:26:50.949Z,102345.59
2023-02-03T15:29:24.910Z,102346.16
2023-02-03T15:32:19.247Z,102341.81
2023-02-03T15:34:51.213Z,102335.59
2023-02-03T15:37:26.688Z,102336.94
2023-02-03T15:40:03.643Z,102349.97
2023-02-03T15:42:39.099Z,102345.88
2023-02-03T15:45:16.266Z,102341.81
2023-02-03T15:47:55.271Z,102352.44
2023-02-03T15:50:31.739Z,102361.38
2023-02-03T15:53:08.063Z,102352.69
2023-02-03T15:55:42.000Z,102352.69
2023-02-03T15:58:20.929Z,102360.53
2023-02-03T16:00:54.506Z,102357.56
2023-02-03T16:03:37.142Z,102364.88
2023-02-03T16:06:13.364Z,102371.69
2023-02-03T16:08:48.464Z,102367.88
2023-02-03T16:11:30.551Z,102384.69
2023-02-03T16:14:03.544Z,102384.16
2023-02-03T16:16:38.489Z,102387.69
2023-02-03T16:19:17.040Z,102393.41
2023-02-03T16:21:56.919Z,102403.16
2023-02-03T16:24:42.640Z,102404.25
2023-02-03T16:27:39.368Z,102401.56
2023-02-03T16:30:39.711Z,102407.00
2023-02-03T16:33:29.056Z,102411.88
2023-02-03T16:36:16.991Z,102412.16
2023-02-03T16:39:00.907Z,102419.75
2023-02-03T16:41:43.345Z,102428.16
2023-02-03T16:44:26.873Z,102435.72
2023-02-03T16:47:09.154Z,102423.00
2023-02-03T16:49:51.249Z,102433.59
2023-02-03T16:52:23.584Z,102430.31
2023-02-03T16:54:53.327Z,102436.28
2023-02-03T16:57:23.166Z,102439.56
2023-02-03T16:59:53.050Z,102445.00
2023-02-03T17:02:23.003Z,102443.34
2023-02-03T17:04:52.868Z,102448.25
2023-02-03T17:07:25.326Z,102456.91
2023-02-03T17:09:55.389Z,102456.63
2023-02-03T17:12:25.930Z,102466.41
2023-02-03T17:14:58.561Z,102475.38
2023-02-03T17:17:28.661Z,102462.34
2023-02-03T17:19:59.464Z,102463.97
2023-02-03T17:22:32.327Z,102454.22
2023-02-03T17:25:02.197Z,102464.53
2023-02-03T17:27:31.954Z,102460.72
2023-02-03T17:30:02.093Z,102467.22
2023-02-03T17:32:31.811Z,102468.03
2023-02-03T17:35:01.893Z,102481.88
2023-02-03T17:37:35.550Z,102482.44
2023-02-03T17:53:55.529Z,102518.75
2023-02-03T17:56:28.044Z,102524.19
2023-02-03T17:58:59.377Z,102513.34
2023-02-03T18:01:30.613Z,102520.34
2023-02-03T18:04:01.870Z,102522.78
2023-02-03T18:06:33.222Z,102525.22
2023-02-03T18:09:06.226Z,102529.81
2023-02-03T18:11:37.750Z,102541.22
2023-02-03T18:14:07.989Z,102529.56
2023-02-03T18:16:38.980Z,102543.41
2023-02-03T18:19:10.643Z,102544.25
2023-02-03T18:21:41.850Z,102544.50
2023-02-03T18:24:18.618Z,102541.75
2023-02-03T18:26:51.833Z,102541.22
2023-02-03T18:29:22.223Z,102541.13
2023-02-03T18:31:52.030Z,102547.97
2023-02-03T18:34:22.185Z,102558.81
2023-02-03T18:36:52.294Z,102560.69
2023-02-03T18:39:24.766Z,102559.06
2023-02-03T18:41:54.512Z,102570.72
2023-02-03T18:44:25.764Z,102575.34
2023-02-03T18:46:55.686Z,102565.81
2023-02-03T18:49:25.604Z,102571.47
2023-02-03T18:51:55.382Z,102575.28
2023-02-03T18:54:29.677Z,102574.44
2023-02-03T18:57:00.486Z,102567.94
2023-02-03T18:59:30.298Z,102563.59
2023-02-03T19:02:00.300Z,102570.38
2023-02-03T19:04:30.081Z,102564.38
2023-02-03T19:06:59.852Z,102570.38
2023-02-03T19:09:32.383Z,102575.00
2023-02-03T19:12:03.190Z,102577.66
2023-02-03T19:14:32.972Z,102585.25
2023-02-03T19:17:03.108Z,102585.25
2023-02-03T19:19:32.937Z,102588.22
2023-02-03T19:22:02.829Z,102586.84
2023-02-03T19:24:35.548Z,102591.72
2023-02-03T19:27:05.446Z,102598.47
2023-02-03T19:29:35.246Z,102603.63
2023-02-03T19:32:06.935Z,102610.66
2023-02-03T19:34:36.801Z,102610.38
2023-02-03T19:37:06.811Z,102617.66
2023-02-03T19:39:39.544Z,102612.50
2023-02-03T19:42:09.550Z,102619.31
2023-02-03T19:44:40.161Z,102618.78
2023-02-03T19:47:10.027Z,102623.13
2023-02-03T19:49:39.821Z,102626.41
2023-02-03T19:52:10.393Z,102647.03
2023-02-03T19:54:42.953Z,102651.03
2023-02-03T19:57:12.724Z,102655.66
2023-02-03T19:59:42.782Z,102663.50
2023-02-03T20:02:14.768Z,102659.41
2023-02-03T20:04:45.312Z,102662.09
2023-02-03T20:07:15.747Z,102670.19
2023-02-03T20:09:48.159Z,102674.00
2023-02-03T20:12:18.003Z,102671.84
2023-02-03T20:14:48.046Z,102661.53
2023-02-03T20:17:18.057Z,102663.19
2023-02-03T20:19:47.740Z,102659.38
2023-02-03T20:22:17.422Z,102666.94
2023-02-03T20:24:50.380Z,102665.31
2023-02-03T20:27:20.827Z,102667.75
2023-02-03T20:29:50.991Z,102667.50
2023-02-03T20:32:21.166Z,102679.97
2023-02-03T20:34:50.970Z,102678.91
2023-02-03T20:37:20.844Z,102669.41
2023-02-03T20:39:53.521Z,102670.72
2023-02-03T20:42:23.379Z,102667.47
2023-02-03T20:44:53.279Z,102669.63
2023-02-03T20:47:23.522Z,102671.75
2023-02-03T20:49:54.035Z,102677.72
2023-02-03T20:52:24.204Z,102684.47
2023-02-03T20:54:56.698Z,102686.91
2023-02-03T20:57:26.641Z,102688.53
2023-02-03T20:59:57.036Z,102690.72
2023-02-03T21:02:34.194Z,102693.97
2023-02-03T21:05:02.629Z,102694.50
2023-02-03T21:07:33.463Z,102694.50
2023-02-03T21:10:20.778Z,102699.03
2023-02-03T21:12:50.921Z,102713.47
2023-02-03T21:15:22.055Z,102708.59
2023-02-03T21:17:51.825Z,102715.38
2023-02-03T21:20:33.037Z,102712.38
2023-02-03T21:23:03.181Z,102714.00
2023-02-03T21:25:36.872Z,102715.63
2023-02-03T21:28:06.966Z,102712.13
2023-02-03T21:30:36.983Z,102714.81
2023-02-03T21:33:30.903Z,102713.91
2023-02-03T21:36:00.795Z,102713.13
2023-02-03T21:38:33.234Z,102712.31
2023-02-03T21:41:05.798Z,102720.44
2023-02-03T21:43:36.496Z,102725.88
2023-02-03T21:46:06.628Z,102731.28
2023-02-03T21:48:42.408Z,102723.09
2023-02-03T21:51:19.066Z,102728.50
2023-02-03T21:53:53.934Z,102712.28
2023-02-03T21:56:28.289Z,102721.47
2023-02-03T21:59:00.461Z,102731.81
2023-02-03T22:01:35.896Z,102742.69
2023-02-03T22:04:06.738Z,102736.75
2023-02-03T22:06:45.272Z,102734.06
2023-02-03T22:09:16.344Z,102729.75
2023-02-03T22:11:49.097Z,102719.44
2023-02-03T22:14:23.357Z,102738.94
2023-02-03T22:16:53.398Z,102743.28
2023-02-03T22:19:23.349Z,102742.72
2023-02-03T22:21:53.399Z,102754.91
2023-02-03T22:24:23.403Z,102759.75
2023-02-03T22:27:00.281Z,102758.13
2023-02-03T22:29:30.484Z,102754.53
2023-02-03T22:32:00.524Z,102754.53
2023-02-03T22:34:30.431Z,102768.91
2023-02-03T22:37:00.293Z,102769.75
2023-02-03T22:39:30.065Z,102780.00
2023-02-03T22:42:02.503Z,102770.56
2023-02-03T22:44:32.400Z,102767.59
2023-02-03T22:47:02.653Z,102770.84
2023-02-03T22:49:32.486Z,102776.25
2023-02-03T22:52:05.778Z,102790.38
2023-02-03T22:54:36.973Z,102783.56
2023-02-03T22:57:09.823Z,102784.66
2023-02-03T22:59:39.622Z,102791.91
2023-02-03T23:02:09.868Z,102801.09
2023-02-03T23:04:39.856Z,102791.34
2023-02-03T23:07:09.664Z,102806.19
2023-02-03T23:09:39.762Z,102810.81
2023-02-03T23:12:12.500Z,102813.47
2023-02-03T23:14:42.285Z,102801.00
2023-02-03T23:17:12.059Z,102808.63
2023-02-03T23:19:41.872Z,102816.75
2023-02-03T23:22:12.103Z,102815.09
2023-02-03T23:24:41.825Z,102821.09
2023-02-03T23:27:14.572Z,102824.88
2023-02-03T23:29:44.419Z,102826.44
2023-02-03T23:32:14.107Z,102830.53
2023-02-03T23:34:56.198Z,102823.78
2023-02-03T23:37:26.855Z,102835.19
2023-02-03T23:39:56.628Z,102828.72
2023-02-03T23:42:29.347Z,102835.75
2023-02-03T23:44:59.788Z,102834.13
2023-02-03T23:47:29.942Z,102845.47
2023-02-03T23:49:59.895Z,102847.59
2023-02-03T23:52:35.631Z,102858.13
2023-02-03T23:55:07.687Z,102866.50
2023-02-03T23:57:42.869Z,102857.81
